createdAt,value
2023-07-05T00:00:10.446Z,10.95
2023-07-05T00:03:14.935Z,10.25
2023-07-05T00:06:19.885Z,14.18
2023-07-05T00:09:22.213Z,12.32
2023-07-05T00:12:24.464Z,15.02
2023-07-05T00:15:28.025Z,13.98
2023-07-05T00:18:33.370Z,14.18
2023-07-05T00:21:36.153Z,16.42
2023-07-05T00:24:43.543Z,14.18
2023-07-05T00:27:48.891Z,15.95
2023-07-05T00:30:51.396Z,11.75
2023-07-05T00:33:53.703Z,13.73
2023-07-05T00:37:00.697Z,12.82
2023-07-05T00:40:03.939Z,12.00
2023-07-05T00:43:11.062Z,13.13
2023-07-05T00:46:28.294Z,14.38
2023-07-05T00:49:38.460Z,15.48
2023-07-05T00:52:40.808Z,12.23
2023-07-05T00:55:56.413Z,13.52
2023-07-05T00:59:00.037Z,14.10
2023-07-05T01:02:03.966Z,13.38
2023-07-05T01:05:08.838Z,12.70
2023-07-05T01:08:13.404Z,12.00
2023-07-05T01:11:25.159Z,12.70
2023-07-05T01:14:27.412Z,12.85
2023-07-05T01:17:50.978Z,12.98
2023-07-05T01:20:53.302Z,14.70
2023-07-05T01:24:31.637Z,12.85
2023-07-05T01:28:02.723Z,12.95
2023-07-05T01:31:45.410Z,12.43
2023-07-05T01:35:18.217Z,14.05
2023-07-05T01:38:20.569Z,13.32
2023-07-05T01:41:23.899Z,11.68
2023-07-05T01:44:29.005Z,10.75
2023-07-05T01:48:22.371Z,11.20
2023-07-05T01:51:29.547Z,11.45
2023-07-05T01:55:05.281Z,13.38
2023-07-05T01:58:16.059Z,10.93
2023-07-05T02:01:22.683Z,11.75
2023-07-05T02:04:27.597Z,13.13
2023-07-05T02:07:32.068Z,14.20
2023-07-05T02:10:34.755Z,13.05
2023-07-05T02:13:37.186Z,14.45
2023-07-05T02:16:40.239Z,11.70
2023-07-05T02:19:42.532Z,13.57
2023-07-05T02:22:46.968Z,13.70
2023-07-05T02:25:53.262Z,13.93
2023-07-05T02:28:58.190Z,15.48
2023-07-05T02:32:01.427Z,15.60
2023-07-05T02:35:06.444Z,14.57
2023-07-05T02:38:08.755Z,15.30
2023-07-05T02:41:15.897Z,16.17
2023-07-05T02:44:22.993Z,14.20
2023-07-05T02:47:25.429Z,12.68
2023-07-05T02:50:30.145Z,16.00
2023-07-05T02:53:37.198Z,13.50
2023-07-05T02:56:44.244Z,13.82
2023-07-05T02:59:46.666Z,15.25
2023-07-05T03:02:52.755Z,14.50
2023-07-05T03:06:00.314Z,12.15
2023-07-05T03:09:04.825Z,15.43
2023-07-05T03:12:08.290Z,14.82
2023-07-05T03:15:13.869Z,15.30
2023-07-05T03:18:24.730Z,16.55
2023-07-05T03:21:29.435Z,15.20
2023-07-05T03:24:33.987Z,15.88
2023-07-05T03:27:39.058Z,14.68
2023-07-05T03:30:44.349Z,13.95
2023-07-05T03:33:56.860Z,17.52
2023-07-05T03:37:03.932Z,16.02
2023-07-05T03:40:09.582Z,14.57
2023-07-05T03:43:12.957Z,12.32
2023-07-05T03:46:20.138Z,15.82
2023-07-05T03:49:22.513Z,16.13
2023-07-05T03:52:24.966Z,12.45
2023-07-05T03:55:29.571Z,15.70
2023-07-05T03:58:35.258Z,15.10
2023-07-05T04:01:40.191Z,18.50
2023-07-05T04:04:45.621Z,15.05
2023-07-05T04:07:50.221Z,13.43
2023-07-05T04:10:55.261Z,15.80
2023-07-05T04:17:02.634Z,11.32
2023-07-05T04:20:10.744Z,15.40
2023-07-05T04:23:13.126Z,15.98
2023-07-05T04:26:23.668Z,15.80
2023-07-05T04:29:26.021Z,16.27
2023-07-05T04:32:28.482Z,14.27
2023-07-05T04:35:34.610Z,14.80
2023-07-05T04:38:39.274Z,14.38
2023-07-05T04:41:41.703Z,15.90
2023-07-05T04:44:46.440Z,14.65
2023-07-05T04:47:51.061Z,19.10
2023-07-05T04:50:56.910Z,14.45
2023-07-05T04:53:59.625Z,15.88
2023-07-05T04:57:01.926Z,18.73
2023-07-05T05:00:04.706Z,16.15
2023-07-05T05:03:09.389Z,17.55
2023-07-05T05:06:11.991Z,17.13
2023-07-05T05:09:16.648Z,22.60
2023-07-05T05:12:18.979Z,15.93
2023-07-05T05:15:21.403Z,17.30
2023-07-05T05:18:29.494Z,16.38
2023-07-05T05:21:31.817Z,14.35
2023-07-05T05:24:34.184Z,15.73
2023-07-05T05:27:36.610Z,20.45
2023-07-05T05:30:41.949Z,19.33
2023-07-05T05:33:45.531Z,16.27
2023-07-05T05:36:50.169Z,15.82
2023-07-05T05:39:52.440Z,15.05
2023-07-05T05:42:57.441Z,18.00
2023-07-05T05:49:06.723Z,16.10
2023-07-05T05:52:09.042Z,13.05
2023-07-05T05:55:13.792Z,16.00
2023-07-05T05:58:16.053Z,14.32
2023-07-05T06:01:21.305Z,15.35
2023-07-05T06:04:23.643Z,12.52
2023-07-05T06:07:31.074Z,11.73
2023-07-05T06:10:33.457Z,12.73
2023-07-05T06:13:38.349Z,14.20
2023-07-05T06:19:45.500Z,12.60
2023-07-05T06:25:53.344Z,14.00
2023-07-05T06:29:01.256Z,13.27
2023-07-05T06:32:06.283Z,14.98
2023-07-05T06:35:08.752Z,12.10
2023-07-05T06:38:11.014Z,12.15
2023-07-05T06:41:13.312Z,11.45
2023-07-05T06:44:15.619Z,11.02
2023-07-05T06:47:17.995Z,9.32
2023-07-05T06:50:30.363Z,10.02
2023-07-05T06:53:48.086Z,9.82
2023-07-05T06:56:54.008Z,10.93
2023-07-05T06:59:58.752Z,9.93
2023-07-05T07:03:03.937Z,11.75
2023-07-05T07:06:11.503Z,10.65
2023-07-05T07:09:13.947Z,14.35
2023-07-05T07:12:16.263Z,11.57
2023-07-05T07:15:18.520Z,8.93
2023-07-05T07:18:25.583Z,10.80
2023-07-05T07:21:28.285Z,11.88
2023-07-05T07:24:35.537Z,9.98
2023-07-05T07:27:40.450Z,9.98
2023-07-05T07:30:45.262Z,9.32
2023-07-05T07:33:50.868Z,11.02
2023-07-05T07:36:53.264Z,12.55
2023-07-05T07:39:57.699Z,11.85
2023-07-05T07:43:02.324Z,11.23
2023-07-05T07:46:09.757Z,9.25
2023-07-05T07:49:14.053Z,11.07
2023-07-05T07:52:21.588Z,9.02
2023-07-05T07:55:26.272Z,8.27
2023-07-05T07:58:32.330Z,8.27
2023-07-05T08:01:41.652Z,9.07
2023-07-05T08:04:48.498Z,8.30
2023-07-05T08:07:53.363Z,7.20
2023-07-05T08:10:55.766Z,9.85
2023-07-05T08:13:58.378Z,10.90
2023-07-05T08:17:00.938Z,9.40
2023-07-05T08:20:05.952Z,9.45
2023-07-05T08:23:08.943Z,8.63
2023-07-05T08:36:15.105Z,8.27
2023-07-05T08:39:17.565Z,8.40
2023-07-05T08:42:58.091Z,8.00
2023-07-05T08:46:06.744Z,9.45
2023-07-05T08:49:20.813Z,8.95
2023-07-05T08:52:27.276Z,7.78
2023-07-05T08:55:57.035Z,10.27
2023-07-05T08:59:06.750Z,8.10
2023-07-05T09:02:11.325Z,7.97
2023-07-05T09:05:20.631Z,8.27
2023-07-05T09:08:49.461Z,7.80
2023-07-05T09:15:13.540Z,10.07
2023-07-05T09:18:32.269Z,7.85
2023-07-05T09:21:46.759Z,8.50
2023-07-05T09:24:53.075Z,10.30
2023-07-05T09:28:17.368Z,10.57
2023-07-05T09:31:25.021Z,8.95
2023-07-05T09:34:39.220Z,7.57
2023-07-05T09:37:54.030Z,8.00
2023-07-05T09:41:05.435Z,7.53
2023-07-05T09:44:13.531Z,8.95
2023-07-05T09:47:19.945Z,9.25
2023-07-05T09:50:22.850Z,9.32
2023-07-05T09:53:53.230Z,9.98
2023-07-05T09:57:10.547Z,9.27
2023-07-05T10:00:32.738Z,7.75
2023-07-05T10:06:45.623Z,8.13
2023-07-05T10:10:09.097Z,8.10
2023-07-05T10:13:35.917Z,7.47
2023-07-05T10:17:08.096Z,7.20
2023-07-05T10:20:24.476Z,7.18
2023-07-05T10:23:27.674Z,7.20
2023-07-05T10:26:35.826Z,9.05
2023-07-05T10:29:42.145Z,9.75
2023-07-05T10:32:47.561Z,8.30
2023-07-05T10:36:05.725Z,8.10
2023-07-05T10:39:11.264Z,6.90
2023-07-05T10:42:13.738Z,7.82
2023-07-05T10:45:19.010Z,8.35
2023-07-05T10:48:31.924Z,8.30
2023-07-05T10:51:38.316Z,6.72
2023-07-05T10:55:04.072Z,6.68
2023-07-05T10:58:19.963Z,8.05
2023-07-05T11:01:40.521Z,7.75
2023-07-05T11:04:46.071Z,8.88
2023-07-05T11:07:54.985Z,7.05
2023-07-05T11:11:05.588Z,7.03
2023-07-05T11:14:18.246Z,7.53
2023-07-05T11:17:31.387Z,7.25
2023-07-05T11:23:41.978Z,7.95
2023-07-05T11:26:47.610Z,7.68
2023-07-05T11:29:53.174Z,6.40
2023-07-05T11:33:07.926Z,6.63
2023-07-05T11:36:40.588Z,6.28
2023-07-05T11:39:49.887Z,8.00
2023-07-05T11:42:55.031Z,7.32
2023-07-05T11:46:04.738Z,6.30
2023-07-05T11:49:21.540Z,8.77
2023-07-05T11:52:35.043Z,9.63
2023-07-05T11:55:45.591Z,8.65
2023-07-05T11:58:52.124Z,8.25
2023-07-05T12:01:54.589Z,8.10
2023-07-05T12:05:00.720Z,7.80
2023-07-05T12:08:23.324Z,6.60
2023-07-05T12:11:32.052Z,9.10
2023-07-05T12:14:34.457Z,9.15
2023-07-05T12:17:40.171Z,7.53
2023-07-05T12:20:47.170Z,6.20
2023-07-05T12:23:55.637Z,6.57
2023-07-05T12:26:58.316Z,7.82
2023-07-05T12:30:09.911Z,7.60
2023-07-05T12:33:23.247Z,7.55
2023-07-05T12:36:25.751Z,8.73
2023-07-05T12:39:28.180Z,8.35
2023-07-05T12:42:32.941Z,6.40
2023-07-05T12:45:42.035Z,8.43
2023-07-05T12:48:46.575Z,7.80
2023-07-05T12:51:54.624Z,7.00
2023-07-05T12:54:59.401Z,7.82
2023-07-05T13:01:19.446Z,6.72
2023-07-05T13:04:23.530Z,7.13
2023-07-05T13:07:28.965Z,7.45
2023-07-05T13:10:40.789Z,7.95
2023-07-05T13:13:43.286Z,7.55
2023-07-05T13:16:53.643Z,7.55
2023-07-05T13:20:19.810Z,9.10
2023-07-05T13:23:32.814Z,7.43
2023-07-05T13:26:41.920Z,7.75
2023-07-05T13:29:44.269Z,8.38
2023-07-05T13:32:53.972Z,7.97
2023-07-05T13:35:56.508Z,8.73
2023-07-05T13:39:05.722Z,7.13
2023-07-05T13:42:17.209Z,8.07
2023-07-05T13:45:27.407Z,7.28
2023-07-05T13:48:30.828Z,7.75
2023-07-05T13:51:34.337Z,8.15
2023-07-05T13:54:36.641Z,8.88
2023-07-05T13:57:38.990Z,7.20
2023-07-05T14:00:48.511Z,7.13
2023-07-05T14:04:00.051Z,6.93
2023-07-05T14:07:06.329Z,8.00
2023-07-05T14:10:11.390Z,7.65
2023-07-05T14:13:21.726Z,8.88
2023-07-05T14:16:25.965Z,9.20
2023-07-05T14:19:30.833Z,8.98
2023-07-05T14:22:33.180Z,7.50
2023-07-05T14:25:41.295Z,6.75
2023-07-05T14:28:46.154Z,8.77
2023-07-05T14:31:49.407Z,7.65
2023-07-05T14:34:51.896Z,8.70
2023-07-05T14:37:57.197Z,9.55
2023-07-05T14:41:04.884Z,9.68
2023-07-05T14:44:11.545Z,8.05
2023-07-05T14:47:14.453Z,8.85
2023-07-05T14:50:22.771Z,9.80
2023-07-05T14:53:32.149Z,7.95
2023-07-05T14:56:34.667Z,8.80
2023-07-05T14:59:39.890Z,10.60
2023-07-05T15:02:49.737Z,9.57
2023-07-05T15:05:54.553Z,10.70
2023-07-05T15:08:56.909Z,9.57
2023-07-05T15:11:59.205Z,9.23
2023-07-05T15:15:12.075Z,10.55
2023-07-05T15:18:14.371Z,7.90
2023-07-05T15:21:21.576Z,8.10
2023-07-05T15:24:24.928Z,8.20
2023-07-05T15:27:28.421Z,9.65
2023-07-05T15:30:36.780Z,7.93
2023-07-05T15:33:39.131Z,9.02
2023-07-05T15:36:43.637Z,8.10
2023-07-05T15:39:48.275Z,8.27
2023-07-05T15:42:53.373Z,7.93
2023-07-05T15:46:00.559Z,8.57
2023-07-05T15:49:02.914Z,7.72
2023-07-05T15:52:10.745Z,9.00
2023-07-05T15:55:15.349Z,9.77
2023-07-05T15:58:21.076Z,7.93
2023-07-05T16:01:25.996Z,9.57
2023-07-05T16:04:28.718Z,9.05
2023-07-05T16:07:31.746Z,9.50
2023-07-05T16:10:39.767Z,10.82
2023-07-05T16:13:45.850Z,13.95
2023-07-05T16:16:49.315Z,9.15
2023-07-05T16:19:56.338Z,10.38
2023-07-05T16:22:58.907Z,8.18
2023-07-05T16:26:01.245Z,9.55
2023-07-05T16:29:06.177Z,8.23
2023-07-05T16:32:11.994Z,7.95
2023-07-05T16:35:14.766Z,9.57
2023-07-05T16:38:17.701Z,8.50
2023-07-05T16:41:24.766Z,8.23
2023-07-05T16:44:27.714Z,10.55
2023-07-05T16:47:30.630Z,8.30
2023-07-05T16:50:33.104Z,9.43
2023-07-05T16:53:40.426Z,10.95
2023-07-05T16:56:47.387Z,9.02
2023-07-05T16:59:51.902Z,10.15
2023-07-05T17:02:56.706Z,11.07
2023-07-05T17:06:03.756Z,10.20
2023-07-05T17:12:17.088Z,7.30
2023-07-05T17:15:19.474Z,8.10
2023-07-05T17:18:24.056Z,7.50
2023-07-05T17:21:28.820Z,8.57
2023-07-05T17:24:33.610Z,8.88
2023-07-05T17:27:36.021Z,7.47
2023-07-05T17:33:44.968Z,9.15
2023-07-05T17:36:53.195Z,9.10
2023-07-05T17:39:56.050Z,10.70
2023-07-05T17:43:01.166Z,9.90
2023-07-05T17:46:12.380Z,8.23
2023-07-05T17:49:17.350Z,8.65
2023-07-05T17:52:19.713Z,10.13
2023-07-05T17:55:22.115Z,8.90
2023-07-05T17:58:24.393Z,8.82
2023-07-05T18:01:30.694Z,9.10
2023-07-05T18:04:35.509Z,10.88
2023-07-05T18:07:40.006Z,8.90
2023-07-05T18:10:42.283Z,9.07
2023-07-05T18:13:44.951Z,12.27
2023-07-05T18:16:47.261Z,9.55
2023-07-05T18:19:49.563Z,10.05
2023-07-05T18:22:51.907Z,8.68
2023-07-05T18:25:55.570Z,10.95
2023-07-05T18:28:58.003Z,9.73
2023-07-05T18:32:00.340Z,9.40
2023-07-05T18:35:04.876Z,7.63
2023-07-05T18:38:12.376Z,10.55
2023-07-05T18:41:17.326Z,8.60
2023-07-05T18:44:22.064Z,10.00
2023-07-05T18:50:31.978Z,9.65
2023-07-05T18:53:44.276Z,9.48
2023-07-05T18:56:46.701Z,11.98
2023-07-05T18:59:49.263Z,7.85
2023-07-05T19:02:51.887Z,10.70
2023-07-05T19:06:00.155Z,11.70
2023-07-05T19:09:03.399Z,8.90
2023-07-05T19:12:06.354Z,9.15
2023-07-05T19:15:10.437Z,8.52
2023-07-05T19:18:15.631Z,9.25
2023-07-05T19:21:19.194Z,11.55
2023-07-05T19:24:21.515Z,9.23
2023-07-05T19:27:26.349Z,10.18
2023-07-05T19:33:34.131Z,10.68
2023-07-05T19:36:36.642Z,8.55
2023-07-05T19:39:38.989Z,8.35
2023-07-05T19:42:41.281Z,7.97
2023-07-05T19:45:46.205Z,8.90
2023-07-05T19:48:51.453Z,9.63
2023-07-05T19:51:58.426Z,9.07
2023-07-05T19:55:00.744Z,10.55
2023-07-05T19:58:04.229Z,14.43
2023-07-05T20:01:07.274Z,10.98
2023-07-05T20:04:11.784Z,10.98
2023-07-05T20:07:14.290Z,10.70
2023-07-05T20:10:17.285Z,11.55
2023-07-05T20:13:21.811Z,10.63
2023-07-05T20:16:26.207Z,10.32
2023-07-05T20:19:30.649Z,8.80
2023-07-05T20:22:35.621Z,11.35
2023-07-05T20:25:37.964Z,9.15
2023-07-05T20:28:43.174Z,8.73
2023-07-05T20:31:46.551Z,10.10
2023-07-05T20:34:51.447Z,11.43
2023-07-05T20:38:01.154Z,10.10
2023-07-05T20:41:03.767Z,8.90
2023-07-05T20:44:10.325Z,9.00
2023-07-05T20:47:19.345Z,9.85
2023-07-05T20:50:26.392Z,11.63
2023-07-05T20:53:29.244Z,12.48
2023-07-05T20:56:33.715Z,10.05
2023-07-05T20:59:38.163Z,11.23
2023-07-05T21:02:40.698Z,9.57
2023-07-05T21:05:46.811Z,9.68
2023-07-05T21:08:49.265Z,8.60
2023-07-05T21:11:51.583Z,9.45
2023-07-05T21:14:56.352Z,8.85
2023-07-05T21:18:02.249Z,8.93
2023-07-05T21:21:10.715Z,8.95
2023-07-05T21:24:15.785Z,8.00
2023-07-05T21:27:18.032Z,10.48
2023-07-05T21:30:24.572Z,9.25
2023-07-05T21:33:28.463Z,12.68
2023-07-05T21:36:34.012Z,12.02
2023-07-05T21:39:38.302Z,10.23
2023-07-05T21:42:42.811Z,12.32
2023-07-05T21:45:50.144Z,9.68
2023-07-05T21:51:55.849Z,8.77
2023-07-05T21:55:00.658Z,8.25
2023-07-05T22:01:08.087Z,9.43
2023-07-05T22:04:10.666Z,10.35
2023-07-05T22:07:14.506Z,9.93
2023-07-05T22:10:24.717Z,9.07
2023-07-05T22:13:28.324Z,9.90
2023-07-05T22:16:34.005Z,10.48
2023-07-05T22:19:39.406Z,12.10
2023-07-05T22:22:44.756Z,9.52
2023-07-05T22:25:47.149Z,11.85
2023-07-05T22:28:49.916Z,8.63
2023-07-05T22:31:57.340Z,8.93
2023-07-05T22:35:02.969Z,10.93
2023-07-05T22:38:07.731Z,10.60
2023-07-05T22:41:14.051Z,8.48
2023-07-05T22:44:20.962Z,10.60
2023-07-05T22:47:27.886Z,8.50
2023-07-05T22:50:30.380Z,9.73
2023-07-05T22:53:33.396Z,9.43
2023-07-05T22:56:38.210Z,9.40
2023-07-05T22:59:40.577Z,9.98
2023-07-05T23:02:47.924Z,8.55
2023-07-05T23:05:50.324Z,9.55
2023-07-05T23:08:53.599Z,7.97
2023-07-05T23:12:00.198Z,8.55
2023-07-05T23:15:08.607Z,9.52
2023-07-05T23:18:11.087Z,10.15
2023-07-05T23:21:17.989Z,8.88
2023-07-05T23:24:22.913Z,8.63
2023-07-05T23:27:25.261Z,8.23
2023-07-05T23:30:30.152Z,11.23
2023-07-05T23:33:34.177Z,7.35
2023-07-05T23:36:42.938Z,8.23
2023-07-05T23:39:47.529Z,8.32
2023-07-05T23:42:52.758Z,7.63
2023-07-05T23:46:03.152Z,9.25
2023-07-05T23:49:07.328Z,7.30
2023-07-05T23:52:09.679Z,8.27
2023-07-05T23:55:13.117Z,7.35
2023-07-05T23:58:17.832Z,7.68
